createdAt,value
2019-05-09T00:02:03.726Z,99336.00
2019-05-09T00:04:34.688Z,99338.27
2019-05-09T00:07:05.980Z,99340.71
2019-05-09T00:09:34.437Z,99331.81
2019-05-09T00:12:05.923Z,99335.91
2019-05-09T00:14:35.286Z,99331.00
2019-05-09T00:17:03.944Z,99339.48
2019-05-09T00:19:33.337Z,99331.30
2019-05-09T00:22:03.249Z,99330.37
2019-05-09T00:24:33.241Z,99330.39
2019-05-09T00:27:03.876Z,99332.54
2019-05-09T00:29:37.288Z,99336.02
2019-05-09T00:32:10.025Z,99330.06
2019-05-09T00:34:40.095Z,99335.80
2019-05-09T00:37:09.569Z,99338.87
2019-05-09T00:39:37.971Z,99332.02
2019-05-09T00:42:07.997Z,99338.16
2019-05-09T00:44:53.340Z,99341.64
2019-05-09T00:47:23.996Z,99332.52
2019-05-09T00:49:55.166Z,99334.16
2019-05-09T00:52:23.599Z,99345.94
2019-05-09T00:54:57.518Z,99339.89
2019-05-09T00:57:34.767Z,99337.64
2019-05-09T01:00:14.537Z,99341.22
2019-05-09T01:02:43.541Z,99340.59
2019-05-09T01:05:13.296Z,99337.42
2019-05-09T01:07:43.089Z,99338.45
2019-05-09T01:10:13.362Z,99342.55
2019-05-09T01:12:43.497Z,99336.94
2019-05-09T01:15:13.351Z,99337.95
2019-05-09T01:17:44.037Z,99341.72
2019-05-09T01:20:14.568Z,99338.73
2019-05-09T01:22:43.642Z,99344.89
2019-05-09T01:25:13.455Z,99341.62
2019-05-09T01:27:43.184Z,99345.02
2019-05-09T01:30:13.543Z,99347.23
2019-05-09T01:32:49.834Z,99342.64
2019-05-09T01:35:18.240Z,99338.54
2019-05-09T01:37:46.648Z,99346.03
2019-05-09T01:40:17.775Z,99343.86
2019-05-09T01:42:45.323Z,99350.85
2019-05-09T01:45:14.220Z,99348.58
2019-05-09T01:47:43.079Z,99346.73
2019-05-09T01:50:14.248Z,99347.97
2019-05-09T01:52:43.785Z,99340.58
2019-05-09T01:55:23.478Z,99344.79
2019-05-09T01:57:54.408Z,99345.30
2019-05-09T02:00:23.954Z,99341.40
2019-05-09T02:02:54.091Z,99342.80
2019-05-09T02:05:24.067Z,99344.19
2019-05-09T02:07:55.358Z,99344.69
2019-05-09T02:10:23.777Z,99340.14
2019-05-09T02:12:53.812Z,99334.62
2019-05-09T02:15:43.465Z,99339.97
2019-05-09T02:18:16.203Z,99340.88
2019-05-09T02:20:44.619Z,99343.23
2019-05-09T02:23:13.979Z,99347.11
2019-05-09T02:25:43.823Z,99341.79
2019-05-09T02:28:14.149Z,99343.23
2019-05-09T02:30:45.005Z,99342.39
2019-05-09T02:33:14.594Z,99341.06
2019-05-09T02:35:55.863Z,99342.67
2019-05-09T02:38:14.279Z,99342.67
2019-05-09T02:40:43.219Z,99343.72
2019-05-09T02:43:11.640Z,99343.69
2019-05-09T02:45:49.352Z,99345.62
2019-05-09T02:48:15.004Z,99342.65
2019-05-09T02:50:43.430Z,99344.81
2019-05-09T02:53:18.718Z,99347.89
2019-05-09T02:55:49.197Z,99347.89
2019-05-09T02:58:21.386Z,99347.47
2019-05-09T03:00:51.440Z,99343.59
2019-05-09T03:03:21.514Z,99345.86
2019-05-09T03:05:59.647Z,99336.34
2019-05-09T03:08:31.541Z,99337.87
2019-05-09T03:11:00.036Z,99348.28
2019-05-09T03:13:29.241Z,99339.56
2019-05-09T03:15:59.518Z,99338.45
2019-05-09T03:18:28.700Z,99338.72
2019-05-09T03:21:08.790Z,99342.99
2019-05-09T03:23:34.564Z,99338.37
2019-05-09T03:26:09.135Z,99343.66
2019-05-09T03:28:38.864Z,99341.31
2019-05-09T03:31:11.962Z,99346.52
2019-05-09T03:33:42.970Z,99347.86
2019-05-09T03:36:13.120Z,99352.22
2019-05-09T03:38:41.473Z,99355.89
2019-05-09T03:41:09.894Z,99360.83
2019-05-09T03:43:42.914Z,99356.05
2019-05-09T03:46:28.076Z,99358.38
2019-05-09T03:49:04.454Z,99372.09
2019-05-09T03:51:33.792Z,99364.46
2019-05-09T03:54:02.212Z,99364.23
2019-05-09T03:56:43.822Z,99367.70
2019-05-09T03:59:12.226Z,99365.41
2019-05-09T04:01:40.658Z,99373.50
2019-05-09T04:04:12.584Z,99381.90
2019-05-09T04:06:41.007Z,99382.08
2019-05-09T04:09:09.455Z,99385.26
2019-05-09T04:11:38.260Z,99383.09
2019-05-09T04:14:11.977Z,99378.30
2019-05-09T04:16:40.382Z,99386.17
2019-05-09T04:19:17.356Z,99381.80
2019-05-09T04:21:45.159Z,99377.88
2019-05-09T04:24:13.835Z,99378.83
2019-05-09T04:26:44.575Z,99377.23
2019-05-09T04:29:18.451Z,99377.27
2019-05-09T04:31:50.975Z,99370.36
2019-05-09T04:34:19.403Z,99376.91
2019-05-09T04:36:48.446Z,99377.36
2019-05-09T04:39:23.402Z,99377.38
2019-05-09T04:41:48.663Z,99381.38
2019-05-09T04:44:38.269Z,99380.36
2019-05-09T04:47:08.684Z,99379.12
2019-05-09T04:49:40.967Z,99387.62
2019-05-09T04:52:07.727Z,99389.45
2019-05-09T04:54:38.250Z,99396.02
2019-05-09T04:57:07.752Z,99388.83
2019-05-09T04:59:37.372Z,99390.65
2019-05-09T05:02:42.970Z,99386.33
2019-05-09T05:05:12.627Z,99397.52
2019-05-09T05:07:41.063Z,99396.50
2019-05-09T05:10:09.738Z,99396.23
2019-05-09T05:12:38.766Z,99390.36
2019-05-09T05:15:09.743Z,99395.42
2019-05-09T05:17:38.187Z,99396.80
2019-05-09T05:20:11.937Z,99398.53
2019-05-09T05:22:42.008Z,99402.48
2019-05-09T05:25:10.506Z,99401.30
2019-05-09T05:27:41.573Z,99401.66
2019-05-09T05:30:14.167Z,99408.30
2019-05-09T05:32:44.244Z,99405.22
2019-05-09T05:35:34.168Z,99402.72
2019-05-09T05:38:08.513Z,99401.88
2019-05-09T05:40:43.493Z,99406.24
2019-05-09T05:43:08.752Z,99401.42
2019-05-09T05:45:38.587Z,99410.84
2019-05-09T05:48:10.912Z,99417.41
2019-05-09T05:50:39.372Z,99421.96
2019-05-09T05:53:08.022Z,99428.45
2019-05-09T05:55:37.955Z,99437.02
2019-05-09T05:58:08.634Z,99434.23
2019-05-09T06:00:37.751Z,99441.95
2019-05-09T06:03:08.579Z,99448.17
2019-05-09T06:05:38.337Z,99449.50
2019-05-09T06:08:08.183Z,99453.78
2019-05-09T06:10:40.639Z,99456.71
2019-05-09T06:13:11.797Z,99465.37
2019-05-09T06:15:42.709Z,99461.42
2019-05-09T06:18:13.643Z,99465.38
2019-05-09T06:20:45.818Z,99462.50
2019-05-09T06:23:17.432Z,99466.20
2019-05-09T06:25:48.606Z,99460.53
2019-05-09T06:28:19.576Z,99464.78
2019-05-09T06:30:47.992Z,99468.55
2019-05-09T06:33:18.065Z,99477.59
2019-05-09T06:35:52.356Z,99477.19
2019-05-09T06:38:20.777Z,99479.09
2019-05-09T06:40:49.293Z,99474.53
2019-05-09T06:43:29.044Z,99474.53
2019-05-09T06:46:29.184Z,99483.52
2019-05-09T06:49:24.351Z,99481.89
2019-05-09T06:51:42.065Z,99485.59
2019-05-09T06:54:10.503Z,99486.77
2019-05-09T06:56:38.914Z,99486.05
2019-05-09T06:59:07.728Z,99490.39
2019-05-09T07:01:37.902Z,99488.42
2019-05-09T07:04:24.824Z,99494.14
2019-05-09T07:06:54.603Z,99491.09
2019-05-09T07:09:33.576Z,99493.28
2019-05-09T07:12:02.970Z,99494.77
2019-05-09T07:14:37.559Z,99495.01
2019-05-09T07:17:03.255Z,99494.19
2019-05-09T07:19:31.882Z,99494.00
2019-05-09T07:22:02.205Z,99497.42
2019-05-09T07:24:31.097Z,99485.14
2019-05-09T07:26:59.576Z,99490.57
2019-05-09T07:29:29.646Z,99484.23
2019-05-09T07:32:14.737Z,99483.82
2019-05-09T07:34:44.787Z,99494.91
2019-05-09T07:37:13.199Z,99503.19
2019-05-09T07:39:41.610Z,99498.56
2019-05-09T07:42:13.690Z,99498.46
2019-05-09T07:44:49.589Z,99498.63
2019-05-09T07:47:17.739Z,99498.06
2019-05-09T07:49:48.130Z,99501.36
2019-05-09T07:52:18.786Z,99499.52
2019-05-09T07:54:48.321Z,99505.15
2019-05-09T07:57:28.582Z,99504.31
2019-05-09T08:00:03.342Z,99503.97
2019-05-09T08:02:32.855Z,99506.86
2019-05-09T08:05:01.277Z,99511.92
2019-05-09T08:07:29.702Z,99515.02
2019-05-09T08:09:58.186Z,99521.14
2019-05-09T08:12:28.423Z,99520.45
2019-05-09T08:15:10.151Z,99526.42
2019-05-09T08:17:28.626Z,99529.88
2019-05-09T08:19:58.377Z,99528.77
2019-05-09T08:22:31.837Z,99526.26
2019-05-09T08:24:57.710Z,99529.37
2019-05-09T08:27:30.056Z,99534.23
2019-05-09T08:29:58.362Z,99536.03
2019-05-09T08:32:28.635Z,99540.64
2019-05-09T08:34:57.832Z,99538.10
2019-05-09T08:37:28.289Z,99537.16
2019-05-09T08:39:57.902Z,99534.25
2019-05-09T08:42:26.366Z,99533.41
2019-05-09T08:44:54.800Z,99534.91
2019-05-09T08:47:23.209Z,99533.20
2019-05-09T08:49:53.290Z,99531.14
2019-05-09T08:52:22.231Z,99528.75
2019-05-09T08:54:59.579Z,99532.99
2019-05-09T08:57:28.879Z,99530.05
2019-05-09T08:59:59.006Z,99531.95
2019-05-09T09:02:30.190Z,99535.28
2019-05-09T09:04:58.704Z,99531.48
2019-05-09T09:07:29.674Z,99533.02
2019-05-09T09:09:57.869Z,99543.09
2019-05-09T09:12:33.797Z,99546.83
2019-05-09T09:14:58.578Z,99542.64
2019-05-09T09:17:29.265Z,99549.28
2019-05-09T09:19:58.376Z,99550.30
2019-05-09T09:22:28.396Z,99556.62
2019-05-09T09:24:58.678Z,99552.83
2019-05-09T09:27:27.990Z,99558.94
2019-05-09T09:29:58.525Z,99551.54
2019-05-09T09:32:28.077Z,99555.02
2019-05-09T09:35:00.496Z,99548.28
2019-05-09T09:37:44.976Z,99548.28
2019-05-09T09:40:01.834Z,99549.17
2019-05-09T09:42:30.311Z,99546.91
2019-05-09T09:44:58.813Z,99553.16
2019-05-09T09:47:31.017Z,99553.16
2019-05-09T09:50:00.543Z,99560.67
2019-05-09T09:52:34.137Z,99559.87
2019-05-09T09:54:59.196Z,99556.14
2019-05-09T09:57:28.847Z,99559.73
2019-05-09T10:00:14.373Z,99571.30
2019-05-09T10:02:42.837Z,99570.28
2019-05-09T10:05:14.986Z,99567.41
2019-05-09T10:07:44.655Z,99571.70
2019-05-09T10:10:18.443Z,99566.89
2019-05-09T10:12:49.346Z,99571.89
2019-05-09T10:15:22.160Z,99570.91
2019-05-09T10:18:01.024Z,99571.75
2019-05-09T10:20:39.605Z,99575.80
2019-05-09T10:23:18.286Z,99576.63
2019-05-09T10:25:43.873Z,99574.88
2019-05-09T10:28:12.299Z,99578.40
2019-05-09T10:30:43.359Z,99576.86
2019-05-09T10:33:18.565Z,99581.52
2019-05-09T10:35:47.925Z,99582.40
2019-05-09T10:38:20.295Z,99577.20
2019-05-09T10:40:48.579Z,99580.83
2019-05-09T10:43:37.612Z,99578.86
2019-05-09T10:46:19.273Z,99582.20
2019-05-09T10:48:48.690Z,99583.70
2019-05-09T10:51:18.550Z,99581.14
2019-05-09T10:53:48.123Z,99581.10
2019-05-09T10:56:18.827Z,99571.43
2019-05-09T10:58:48.188Z,99567.61
2019-05-09T11:01:18.557Z,99571.28
2019-05-09T11:03:48.241Z,99572.23
2019-05-09T11:06:18.394Z,99576.28
2019-05-09T11:08:47.818Z,99568.36
2019-05-09T11:11:18.182Z,99564.77
2019-05-09T11:13:48.172Z,99575.28
2019-05-09T11:16:18.682Z,99566.21
2019-05-09T11:18:48.641Z,99566.02
2019-05-09T11:21:28.609Z,99566.70
2019-05-09T11:24:01.354Z,99565.16
2019-05-09T11:26:33.644Z,99576.13
2019-05-09T11:29:02.046Z,99577.06
2019-05-09T11:31:30.462Z,99570.83
2019-05-09T11:34:05.214Z,99572.25
2019-05-09T11:36:33.593Z,99576.34
2019-05-09T11:39:02.259Z,99571.69
2019-05-09T11:44:30.878Z,99576.86
2019-05-09T11:47:01.687Z,99582.66
2019-05-09T11:49:39.115Z,99575.11
2019-05-09T11:52:08.401Z,99589.08
2019-05-09T11:54:38.829Z,99588.61
2019-05-09T11:57:07.647Z,99590.48
2019-05-09T11:59:37.954Z,99593.22
2019-05-09T12:02:08.848Z,99597.33
2019-05-09T12:04:37.995Z,99588.29
2019-05-09T12:07:07.919Z,99595.88
2019-05-09T12:09:38.508Z,99591.80
2019-05-09T12:12:06.591Z,99593.80
2019-05-09T12:14:35.003Z,99590.01
2019-05-09T12:17:08.324Z,99588.27
2019-05-09T12:19:38.065Z,99594.51
2019-05-09T12:22:10.413Z,99585.00
2019-05-09T12:24:38.867Z,99582.06
2019-05-09T12:27:08.852Z,99580.69
2019-05-09T12:29:38.712Z,99582.20
2019-05-09T12:32:11.090Z,99581.88
2019-05-09T12:34:39.499Z,99586.31
2019-05-09T12:37:09.516Z,99587.33
2019-05-09T12:39:38.685Z,99583.88
2019-05-09T12:42:08.850Z,99584.68
2019-05-09T12:44:37.325Z,99577.29
2019-05-09T12:47:05.768Z,99579.89
2019-05-09T12:49:34.219Z,99579.25
2019-05-09T12:52:10.389Z,99577.43
2019-05-09T12:54:38.856Z,99574.37
2019-05-09T12:57:08.113Z,99577.47
2019-05-09T12:59:48.584Z,99579.40
2019-05-09T13:02:09.458Z,99582.11
2019-05-09T13:04:47.728Z,99584.75
2019-05-09T13:07:11.827Z,99585.56
2019-05-09T13:09:41.048Z,99586.06
2019-05-09T13:12:10.479Z,99592.55
2019-05-09T13:14:38.909Z,99597.85
2019-05-09T13:17:14.578Z,99590.48
2019-05-09T13:19:48.165Z,99588.69
2019-05-09T13:22:18.554Z,99588.55
2019-05-09T13:24:47.550Z,99597.02
2019-05-09T13:27:18.972Z,99591.95
2019-05-09T13:29:52.657Z,99588.06
2019-05-09T13:32:28.013Z,99592.22
2019-05-09T13:35:09.956Z,99581.92
2019-05-09T13:37:44.732Z,99583.83
2019-05-09T13:40:18.576Z,99085.72
2019-05-09T13:42:48.744Z,99585.39
2019-05-09T13:45:23.782Z,99591.31
2019-05-09T13:47:52.239Z,99592.19
2019-05-09T13:50:23.174Z,99583.64
2019-05-09T13:52:55.591Z,99586.78
2019-05-09T13:55:24.065Z,99588.53
2019-05-09T13:57:57.566Z,99595.40
2019-05-09T14:00:28.460Z,99592.42
2019-05-09T14:02:56.497Z,99596.93
2019-05-09T14:05:29.155Z,99598.62
2019-05-09T14:08:04.371Z,99587.49
2019-05-09T14:10:33.971Z,99596.83
2019-05-09T14:13:09.772Z,99596.80
2019-05-09T14:15:32.510Z,99593.23
2019-05-09T14:18:00.927Z,99596.89
2019-05-09T14:20:29.315Z,99603.44
2019-05-09T14:23:01.347Z,99600.96
2019-05-09T14:25:29.779Z,99601.60
2019-05-09T14:27:58.176Z,99603.59
2019-05-09T14:30:29.310Z,99603.31
2019-05-09T14:33:04.565Z,99603.72
2019-05-09T14:35:34.433Z,99599.84
2019-05-09T14:38:03.057Z,99603.95
2019-05-09T14:40:31.537Z,99601.05
2019-05-09T14:43:04.068Z,99602.41
2019-05-09T14:45:30.091Z,99601.72
2019-05-09T14:47:58.839Z,99597.97
2019-05-09T14:50:28.502Z,99601.56
2019-05-09T14:52:58.425Z,99599.23
2019-05-09T14:55:30.887Z,99596.87
2019-05-09T14:57:59.295Z,99592.72
2019-05-09T15:00:27.802Z,99595.89
2019-05-09T15:02:58.128Z,99595.66
2019-05-09T15:05:27.891Z,99592.98
2019-05-09T15:07:59.245Z,99588.89
2019-05-09T15:10:27.710Z,99598.30
2019-05-09T15:12:58.385Z,99598.25
2019-05-09T15:15:32.044Z,99596.87
2019-05-09T15:17:58.430Z,99602.11
2019-05-09T15:20:28.078Z,99609.16
2019-05-09T15:22:58.664Z,99609.75
2019-05-09T15:25:28.131Z,99612.69
2019-05-09T15:27:58.016Z,99614.83
2019-05-09T15:30:28.719Z,99629.09
2019-05-09T15:32:58.546Z,99619.31
2019-05-09T15:35:28.133Z,99624.60
2019-05-09T15:37:59.006Z,99622.11
2019-05-09T15:40:28.170Z,99621.55
2019-05-09T15:42:58.894Z,99620.97
2019-05-09T15:45:28.635Z,99630.34
2019-05-09T15:47:58.315Z,99631.33
2019-05-09T15:50:29.411Z,99632.31
2019-05-09T15:53:00.555Z,99624.44
2019-05-09T15:55:30.819Z,99630.27
2019-05-09T15:58:01.389Z,99627.45
2019-05-09T16:00:33.600Z,99640.09
2019-05-09T16:03:02.024Z,99649.94
2019-05-09T16:05:35.000Z,99648.89
2019-05-09T16:08:03.396Z,99650.79
2019-05-09T16:10:31.829Z,99650.15
2019-05-09T16:13:00.248Z,99648.08
2019-05-09T16:15:32.418Z,99651.27
2019-05-09T16:18:00.818Z,99647.34
2019-05-09T16:20:41.050Z,99651.97
2019-05-09T16:23:08.489Z,99657.30
2019-05-09T16:25:40.550Z,99663.63
2019-05-09T16:28:08.997Z,99656.65
2019-05-09T16:30:39.948Z,99658.80
2019-05-09T16:33:08.243Z,99657.01
2019-05-09T16:35:39.623Z,99658.97
2019-05-09T16:38:10.840Z,99663.33
2019-05-09T16:40:38.740Z,99655.73
2019-05-09T16:43:09.077Z,99653.82
2019-05-09T16:45:38.038Z,99654.36
2019-05-09T16:48:11.408Z,99652.23
2019-05-09T16:50:41.894Z,99651.88
2019-05-09T16:53:09.006Z,99646.42
2019-05-09T16:55:39.441Z,99652.51
2019-05-09T16:58:08.691Z,99656.09
2019-05-09T17:00:47.664Z,99652.36
2019-05-09T17:03:19.057Z,99652.56
2019-05-09T17:05:50.089Z,99654.17
2019-05-09T17:08:18.514Z,99654.98
2019-05-09T17:10:49.691Z,99654.27
2019-05-09T17:13:18.646Z,99659.95
2019-05-09T17:15:48.407Z,99655.87
2019-05-09T17:18:18.946Z,99652.98
2019-05-09T17:20:48.612Z,99656.69
2019-05-09T17:23:22.094Z,99661.73
2019-05-09T17:25:57.952Z,99658.31
2019-05-09T17:28:28.483Z,99660.02
2019-05-09T17:30:57.922Z,99656.39
2019-05-09T17:33:28.774Z,99652.67
2019-05-09T17:35:57.748Z,99663.63
2019-05-09T17:38:27.909Z,99666.61
2019-05-09T17:40:57.690Z,99667.73
2019-05-09T17:43:27.890Z,99663.00
2019-05-09T17:45:58.392Z,99659.21
2019-05-09T17:48:28.514Z,99662.56
2019-05-09T17:50:59.832Z,99660.13
2019-05-09T17:53:33.193Z,99668.89
2019-05-09T17:55:59.571Z,99670.42
2019-05-09T17:58:33.408Z,99673.29
2019-05-09T18:01:01.982Z,99676.34
2019-05-09T18:03:32.757Z,99677.09
2019-05-09T18:06:09.605Z,99681.67
2019-05-09T18:08:38.009Z,99678.52
2019-05-09T18:11:09.195Z,99684.45
2019-05-09T18:13:38.591Z,99685.00
2019-05-09T18:16:06.955Z,99690.61
2019-05-09T18:18:35.588Z,99695.80
2019-05-09T18:21:05.370Z,99696.16
2019-05-09T18:23:33.852Z,99696.16
2019-05-09T18:26:03.866Z,99698.83
2019-05-09T18:28:32.328Z,99707.98
2019-05-09T18:31:00.789Z,99703.22
2019-05-09T18:33:30.829Z,99708.81
2019-05-09T18:35:59.246Z,99711.51
2019-05-09T18:38:33.237Z,99712.84
2019-05-09T18:41:02.201Z,99710.58
2019-05-09T18:43:31.351Z,99727.06
2019-05-09T18:46:08.394Z,99720.53
2019-05-09T18:48:41.892Z,99724.55
2019-05-09T18:51:10.761Z,99726.58
2019-05-09T18:53:44.378Z,99725.62
2019-05-09T18:56:12.788Z,99723.42
2019-05-09T18:58:42.156Z,99727.19
2019-05-09T19:01:14.283Z,99726.38
2019-05-09T19:03:42.692Z,99727.47
2019-05-09T19:06:12.852Z,99732.11
2019-05-09T19:08:42.474Z,99733.44
2019-05-09T19:11:11.092Z,99738.89
2019-05-09T19:13:43.358Z,99742.00
2019-05-09T19:16:22.425Z,99744.59
2019-05-09T19:18:54.105Z,99739.87
2019-05-09T19:21:24.165Z,99745.93
2019-05-09T19:23:54.498Z,99748.42
2019-05-09T19:26:37.919Z,99755.73
2019-05-09T19:29:08.479Z,99755.20
2019-05-09T19:31:37.464Z,99758.09
2019-05-09T19:34:06.999Z,99761.98
2019-05-09T19:36:35.645Z,99761.57
2019-05-09T19:39:13.194Z,99764.87
2019-05-09T19:41:48.410Z,99761.39
2019-05-09T19:44:20.512Z,99760.36
2019-05-09T19:46:49.808Z,99760.86
2019-05-09T19:49:22.026Z,99766.11
2019-05-09T19:51:52.545Z,99765.98
2019-05-09T19:54:21.932Z,99658.10
2019-05-09T19:56:52.853Z,99762.73
2019-05-09T19:59:24.612Z,99765.77
2019-05-09T20:01:53.032Z,99765.18
2019-05-09T20:04:21.459Z,99772.69
2019-05-09T20:06:49.871Z,99768.16
2019-05-09T20:09:22.610Z,99775.28
2019-05-09T20:11:57.625Z,99773.51
2019-05-09T20:14:30.382Z,99770.83
2019-05-09T20:16:58.927Z,99773.51
2019-05-09T20:19:27.368Z,99775.03
2019-05-09T20:21:55.792Z,99773.51
2019-05-09T20:24:25.317Z,99775.96
2019-05-09T20:27:00.135Z,99781.93
2019-05-09T20:29:32.210Z,99778.14
2019-05-09T20:32:00.633Z,99786.34
2019-05-09T20:34:29.038Z,99787.36
2019-05-09T20:37:01.119Z,99790.38
2019-05-09T20:39:31.011Z,99794.16
2019-05-09T20:42:03.252Z,99785.34
2019-05-09T20:44:54.993Z,99794.89
2019-05-09T20:47:29.676Z,99801.16
2019-05-09T20:50:09.797Z,99797.56
2019-05-09T20:53:08.474Z,99800.63
2019-05-09T20:55:41.223Z,99802.81
2019-05-09T20:58:10.864Z,99812.96
2019-05-09T21:00:41.961Z,99813.15
2019-05-09T21:03:14.288Z,99814.35
2019-05-09T21:05:45.359Z,99805.91
2019-05-09T21:08:18.984Z,99814.72
2019-05-09T21:10:53.814Z,99823.08
2019-05-09T21:13:22.368Z,99823.08
2019-05-09T21:15:53.478Z,99826.37
2019-05-09T21:18:26.313Z,99832.22
2019-05-09T21:21:08.089Z,99837.20
2019-05-09T21:23:39.660Z,99832.70
2019-05-09T21:26:07.110Z,99826.98
2019-05-09T21:28:35.760Z,99831.25
2019-05-09T21:31:07.377Z,99832.75
2019-05-09T21:33:39.726Z,99830.88
2019-05-09T21:36:14.466Z,99829.31
2019-05-09T21:38:46.721Z,99835.88
2019-05-09T21:41:14.642Z,99840.57
2019-05-09T21:43:44.125Z,99846.52
2019-05-09T21:46:13.753Z,99846.56
2019-05-09T21:48:42.642Z,99849.39
2019-05-09T21:51:23.731Z,99854.40
2019-05-09T21:53:52.231Z,99857.01
2019-05-09T21:56:21.131Z,99856.45
2019-05-09T21:58:49.653Z,99864.25
2019-05-09T22:01:23.728Z,99856.58
2019-05-09T22:03:52.579Z,99861.59
2019-05-09T22:06:21.294Z,99859.81
2019-05-09T22:08:49.847Z,99860.62
2019-05-09T22:11:18.459Z,99861.59
2019-05-09T22:13:53.287Z,99864.25
2019-05-09T22:16:22.245Z,99865.59
2019-05-09T22:18:55.024Z,99853.73
2019-05-09T22:21:23.824Z,99850.10
2019-05-09T22:23:56.575Z,99858.09
2019-05-09T22:26:26.639Z,99862.16
2019-05-09T22:28:55.215Z,99865.19
2019-05-09T22:31:26.773Z,99866.84
2019-05-09T22:33:56.868Z,99863.17
2019-05-09T22:36:25.418Z,99860.31
2019-05-09T22:38:54.002Z,99866.52
2019-05-09T22:41:24.026Z,99863.73
2019-05-09T22:43:52.836Z,99861.34
2019-05-09T22:46:27.508Z,99863.73
2019-05-09T22:48:56.112Z,99868.73
2019-05-09T22:51:24.679Z,99862.73
2019-05-09T22:53:53.219Z,99864.75
2019-05-09T22:56:22.722Z,99863.49
2019-05-09T22:58:52.336Z,99866.59
2019-05-09T23:01:20.911Z,99866.72
2019-05-09T23:03:52.184Z,99866.64
2019-05-09T23:06:28.489Z,99868.56
2019-05-09T23:08:55.780Z,99865.91
2019-05-09T23:11:26.988Z,99871.23
2019-05-09T23:13:56.026Z,99867.60
2019-05-09T23:16:27.493Z,99868.80
2019-05-09T23:18:56.131Z,99692.81
2019-05-09T23:21:27.470Z,99867.08
2019-05-09T23:24:00.708Z,99864.49
2019-05-09T23:26:29.459Z,99860.58
2019-05-09T23:29:02.004Z,99857.64
2019-05-09T23:31:32.399Z,99852.72
2019-05-09T23:34:00.965Z,99848.16
2019-05-09T23:36:31.599Z,99852.40
2019-05-09T23:39:21.455Z,99854.54
2019-05-09T23:41:53.459Z,99803.84
2019-05-09T23:44:28.409Z,99858.48
2019-05-09T23:46:57.211Z,99856.39
2019-05-09T23:49:32.374Z,99851.55
2019-05-09T23:52:03.218Z,99856.07
2019-05-09T23:54:53.914Z,99857.77
2019-05-09T23:57:39.619Z,99856.06
